sensor_id;sensor_type;location;lat;lon;timestamp;P1;durP1;ratioP1;P2;durP2;ratioP2
4355;SDS011;64374;51.482;7.408;2023-03-05T00:01:33;7.70;;;2.60;;
4355;SDS011;64374;51.482;7.408;2023-03-05T00:04:03;5.90;;;2.20;;
4355;SDS011;64374;51.482;7.408;2023-03-05T00:06:38;9.10;;;2.47;;
4355;SDS011;64374;51.482;7.408;2023-03-05T00:09:07;4.83;;;1.97;;
4355;SDS011;64374;51.482;7.408;2023-03-05T00:11:36;6.63;;;2.33;;
4355;SDS011;64374;51.482;7.408;2023-03-05T00:14:05;6.27;;;2.60;;
4355;SDS011;64374;51.482;7.408;2023-03-05T00:16:34;9.77;;;2.77;;
4355;SDS011;64374;51.482;7.408;2023-03-05T00:19:03;7.53;;;2.43;;
4355;SDS011;64374;51.482;7.408;2023-03-05T00:21:32;6.30;;;2.33;;
4355;SDS011;64374;51.482;7.408;2023-03-05T00:24:05;2.60;;;1.83;;
4355;SDS011;64374;51.482;7.408;2023-03-05T00:26:37;12.87;;;2.77;;
4355;SDS011;64374;51.482;7.408;2023-03-05T00:29:07;8.80;;;3.20;;
4355;SDS011;64374;51.482;7.408;2023-03-05T00:31:37;8.93;;;2.70;;
4355;SDS011;64374;51.482;7.408;2023-03-05T00:34:11;6.07;;;2.33;;
4355;SDS011;64374;51.482;7.408;2023-03-05T00:36:42;7.80;;;2.53;;
4355;SDS011;64374;51.482;7.408;2023-03-05T00:39:13;10.13;;;2.73;;
4355;SDS011;64374;51.482;7.408;2023-03-05T00:41:43;9.63;;;3.00;;
4355;SDS011;64374;51.482;7.408;2023-03-05T00:44:12;9.57;;;2.93;;
4355;SDS011;64374;51.482;7.408;2023-03-05T00:46:43;7.23;;;2.90;;
4355;SDS011;64374;51.482;7.408;2023-03-05T00:49:12;11.37;;;2.40;;
4355;SDS011;64374;51.482;7.408;2023-03-05T00:51:41;11.80;;;2.47;;
4355;SDS011;64374;51.482;7.408;2023-03-05T00:54:10;6.73;;;2.47;;
4355;SDS011;64374;51.482;7.408;2023-03-05T00:56:42;19.53;;;3.40;;
4355;SDS011;64374;51.482;7.408;2023-03-05T00:59:11;11.97;;;3.33;;
4355;SDS011;64374;51.482;7.408;2023-03-05T01:01:42;16.20;;;3.10;;
4355;SDS011;64374;51.482;7.408;2023-03-05T01:04:11;11.17;;;3.00;;
4355;SDS011;64374;51.482;7.408;2023-03-05T01:06:40;9.83;;;3.30;;
4355;SDS011;64374;51.482;7.408;2023-03-05T01:09:13;6.70;;;2.77;;
4355;SDS011;64374;51.482;7.408;2023-03-05T01:11:43;9.80;;;2.53;;
4355;SDS011;64374;51.482;7.408;2023-03-05T01:14:12;10.20;;;3.00;;
4355;SDS011;64374;51.482;7.408;2023-03-05T01:16:41;9.50;;;2.70;;
4355;SDS011;64374;51.482;7.408;2023-03-05T01:19:09;13.07;;;3.47;;
4355;SDS011;64374;51.482;7.408;2023-03-05T01:21:40;9.30;;;3.77;;
4355;SDS011;64374;51.482;7.408;2023-03-05T01:24:10;9.23;;;2.97;;
4355;SDS011;64374;51.482;7.408;2023-03-05T01:26:39;13.07;;;3.07;;
4355;SDS011;64374;51.482;7.408;2023-03-05T01:29:09;4.40;;;2.40;;
4355;SDS011;64374;51.482;7.408;2023-03-05T01:31:38;9.00;;;2.73;;
4355;SDS011;64374;51.482;7.408;2023-03-05T01:34:07;5.60;;;2.20;;
4355;SDS011;64374;51.482;7.408;2023-03-05T01:36:36;9.63;;;2.00;;
4355;SDS011;64374;51.482;7.408;2023-03-05T01:39:05;14.43;;;2.63;;
4355;SDS011;64374;51.482;7.408;2023-03-05T01:41:33;12.50;;;2.90;;
4355;SDS011;64374;51.482;7.408;2023-03-05T01:44:03;15.20;;;3.43;;
4355;SDS011;64374;51.482;7.408;2023-03-05T01:46:34;6.47;;;2.27;;
4355;SDS011;64374;51.482;7.408;2023-03-05T01:49:09;7.50;;;2.30;;
4355;SDS011;64374;51.482;7.408;2023-03-05T01:51:44;11.37;;;2.50;;
4355;SDS011;64374;51.482;7.408;2023-03-05T01:54:30;9.20;;;2.30;;
4355;SDS011;64374;51.482;7.408;2023-03-05T01:57:03;5.30;;;2.13;;
4355;SDS011;64374;51.482;7.408;2023-03-05T01:59:36;10.40;;;2.20;;
4355;SDS011;64374;51.482;7.408;2023-03-05T02:02:09;6.20;;;2.27;;
4355;SDS011;64374;51.482;7.408;2023-03-05T02:04:40;6.70;;;2.77;;
4355;SDS011;64374;51.482;7.408;2023-03-05T02:07:12;5.10;;;2.67;;
4355;SDS011;64374;51.482;7.408;2023-03-05T02:09:42;6.00;;;2.37;;
4355;SDS011;64374;51.482;7.408;2023-03-05T02:12:11;9.40;;;2.40;;
4355;SDS011;64374;51.482;7.408;2023-03-05T02:14:43;10.57;;;2.70;;
4355;SDS011;64374;51.482;7.408;2023-03-05T02:17:15;9.13;;;2.77;;
4355;SDS011;64374;51.482;7.408;2023-03-05T02:19:45;7.53;;;3.10;;
4355;SDS011;64374;51.482;7.408;2023-03-05T02:22:20;11.57;;;4.47;;
4355;SDS011;64374;51.482;7.408;2023-03-05T02:24:52;11.73;;;4.20;;
4355;SDS011;64374;51.482;7.408;2023-03-05T02:27:22;12.47;;;4.57;;
4355;SDS011;64374;51.482;7.408;2023-03-05T02:30:00;9.70;;;4.50;;
4355;SDS011;64374;51.482;7.408;2023-03-05T02:32:29;12.07;;;4.70;;
4355;SDS011;64374;51.482;7.408;2023-03-05T02:34:58;6.43;;;4.10;;
4355;SDS011;64374;51.482;7.408;2023-03-05T02:37:28;12.30;;;4.30;;
4355;SDS011;64374;51.482;7.408;2023-03-05T02:39:57;21.30;;;5.10;;
4355;SDS011;64374;51.482;7.408;2023-03-05T02:42:27;10.83;;;4.57;;
4355;SDS011;64374;51.482;7.408;2023-03-05T02:45:00;10.27;;;6.03;;
4355;SDS011;64374;51.482;7.408;2023-03-05T02:47:29;12.10;;;5.10;;
4355;SDS011;64374;51.482;7.408;2023-03-05T02:49:59;16.97;;;5.53;;
4355;SDS011;64374;51.482;7.408;2023-03-05T02:52:29;10.37;;;4.50;;
4355;SDS011;64374;51.482;7.408;2023-03-05T02:54:59;9.93;;;5.13;;
4355;SDS011;64374;51.482;7.408;2023-03-05T02:57:29;10.20;;;3.53;;
4355;SDS011;64374;51.482;7.408;2023-03-05T02:59:58;8.33;;;3.57;;
4355;SDS011;64374;51.482;7.408;2023-03-05T03:02:26;13.33;;;4.00;;
4355;SDS011;64374;51.482;7.408;2023-03-05T03:04:57;6.10;;;3.10;;
4355;SDS011;64374;51.482;7.408;2023-03-05T03:07:26;7.07;;;2.60;;
4355;SDS011;64374;51.482;7.408;2023-03-05T03:09:55;9.57;;;3.03;;
4355;SDS011;64374;51.482;7.408;2023-03-05T03:12:24;9.87;;;3.03;;
4355;SDS011;64374;51.482;7.408;2023-03-05T03:14:52;6.40;;;2.30;;
4355;SDS011;64374;51.482;7.408;2023-03-05T03:17:22;8.17;;;1.93;;
4355;SDS011;64374;51.482;7.408;2023-03-05T03:19:50;4.17;;;2.20;;
4355;SDS011;64374;51.482;7.408;2023-03-05T03:22:19;3.27;;;1.70;;
4355;SDS011;64374;51.482;7.408;2023-03-05T03:24:48;3.83;;;1.87;;
4355;SDS011;64374;51.482;7.408;2023-03-05T03:27:18;11.33;;;2.83;;
4355;SDS011;64374;51.482;7.408;2023-03-05T03:29:47;6.90;;;2.83;;
4355;SDS011;64374;51.482;7.408;2023-03-05T03:32:16;7.60;;;1.90;;
4355;SDS011;64374;51.482;7.408;2023-03-05T03:34:44;6.20;;;2.47;;
4355;SDS011;64374;51.482;7.408;2023-03-05T03:37:13;9.23;;;2.57;;
4355;SDS011;64374;51.482;7.408;2023-03-05T03:39:42;6.77;;;1.60;;
4355;SDS011;64374;51.482;7.408;2023-03-05T03:42:11;7.50;;;1.83;;
4355;SDS011;64374;51.482;7.408;2023-03-05T03:44:41;6.40;;;2.10;;
4355;SDS011;64374;51.482;7.408;2023-03-05T03:47:09;6.23;;;2.17;;
4355;SDS011;64374;51.482;7.408;2023-03-05T03:49:38;8.73;;;2.13;;
4355;SDS011;64374;51.482;7.408;2023-03-05T03:52:06;8.30;;;3.20;;
4355;SDS011;64374;51.482;7.408;2023-03-05T03:54:35;4.30;;;2.60;;
4355;SDS011;64374;51.482;7.408;2023-03-05T03:57:04;5.07;;;2.27;;
4355;SDS011;64374;51.482;7.408;2023-03-05T03:59:35;14.93;;;3.40;;
4355;SDS011;64374;51.482;7.408;2023-03-05T04:02:11;9.80;;;3.60;;
4355;SDS011;64374;51.482;7.408;2023-03-05T04:04:39;12.63;;;5.30;;
4355;SDS011;64374;51.482;7.408;2023-03-05T04:07:08;6.73;;;3.50;;
4355;SDS011;64374;51.482;7.408;2023-03-05T04:09:37;12.70;;;4.73;;
4355;SDS011;64374;51.482;7.408;2023-03-05T04:12:06;7.67;;;4.63;;
4355;SDS011;64374;51.482;7.408;2023-03-05T04:14:59;9.60;;;5.17;;
4355;SDS011;64374;51.482;7.408;2023-03-05T04:17:28;13.00;;;3.83;;
4355;SDS011;64374;51.482;7.408;2023-03-05T04:19:57;9.53;;;3.40;;
4355;SDS011;64374;51.482;7.408;2023-03-05T04:22:25;7.97;;;3.40;;
4355;SDS011;64374;51.482;7.408;2023-03-05T04:24:54;5.90;;;3.47;;
4355;SDS011;64374;51.482;7.408;2023-03-05T04:27:23;8.33;;;3.60;;
4355;SDS011;64374;51.482;7.408;2023-03-05T04:29:51;9.00;;;3.60;;
4355;SDS011;64374;51.482;7.408;2023-03-05T04:32:23;8.63;;;4.30;;
4355;SDS011;64374;51.482;7.408;2023-03-05T04:34:54;6.90;;;4.87;;
4355;SDS011;64374;51.482;7.408;2023-03-05T04:37:22;8.20;;;4.80;;
4355;SDS011;64374;51.482;7.408;2023-03-05T04:39:52;10.20;;;5.40;;
4355;SDS011;64374;51.482;7.408;2023-03-05T04:42:22;11.07;;;5.67;;
4355;SDS011;64374;51.482;7.408;2023-03-05T04:44:50;12.70;;;5.10;;
4355;SDS011;64374;51.482;7.408;2023-03-05T04:47:19;13.07;;;5.57;;
4355;SDS011;64374;51.482;7.408;2023-03-05T04:49:49;21.37;;;5.83;;
4355;SDS011;64374;51.482;7.408;2023-03-05T04:52:17;15.10;;;6.50;;
4355;SDS011;64374;51.482;7.408;2023-03-05T04:54:46;9.20;;;5.40;;
4355;SDS011;64374;51.482;7.408;2023-03-05T04:57:14;12.37;;;5.20;;
4355;SDS011;64374;51.482;7.408;2023-03-05T04:59:43;8.70;;;5.13;;
4355;SDS011;64374;51.482;7.408;2023-03-05T05:02:12;19.00;;;5.70;;
4355;SDS011;64374;51.482;7.408;2023-03-05T05:04:41;8.70;;;5.50;;
4355;SDS011;64374;51.482;7.408;2023-03-05T05:07:15;8.33;;;4.90;;
4355;SDS011;64374;51.482;7.408;2023-03-05T05:09:44;15.57;;;5.73;;
4355;SDS011;64374;51.482;7.408;2023-03-05T05:12:13;12.30;;;7.13;;
4355;SDS011;64374;51.482;7.408;2023-03-05T05:14:41;11.33;;;5.90;;
4355;SDS011;64374;51.482;7.408;2023-03-05T05:17:09;12.90;;;5.80;;
4355;SDS011;64374;51.482;7.408;2023-03-05T05:19:38;11.20;;;5.70;;
4355;SDS011;64374;51.482;7.408;2023-03-05T05:22:07;10.77;;;6.57;;
4355;SDS011;64374;51.482;7.408;2023-03-05T05:24:37;9.77;;;6.33;;
4355;SDS011;64374;51.482;7.408;2023-03-05T05:27:06;10.00;;;6.40;;
4355;SDS011;64374;51.482;7.408;2023-03-05T05:29:40;8.80;;;5.07;;
4355;SDS011;64374;51.482;7.408;2023-03-05T05:32:09;10.50;;;5.17;;
4355;SDS011;64374;51.482;7.408;2023-03-05T05:34:39;9.97;;;4.30;;
4355;SDS011;64374;51.482;7.408;2023-03-05T05:37:07;10.93;;;5.20;;
4355;SDS011;64374;51.482;7.408;2023-03-05T05:39:37;15.77;;;4.60;;
4355;SDS011;64374;51.482;7.408;2023-03-05T05:42:06;7.97;;;3.90;;
4355;SDS011;64374;51.482;7.408;2023-03-05T05:44:34;6.57;;;3.97;;
4355;SDS011;64374;51.482;7.408;2023-03-05T05:47:02;9.20;;;4.50;;
4355;SDS011;64374;51.482;7.408;2023-03-05T05:49:31;14.57;;;5.47;;
4355;SDS011;64374;51.482;7.408;2023-03-05T05:51:59;8.40;;;4.30;;
4355;SDS011;64374;51.482;7.408;2023-03-05T05:54:27;10.63;;;5.87;;
4355;SDS011;64374;51.482;7.408;2023-03-05T05:56:57;12.93;;;6.40;;
4355;SDS011;64374;51.482;7.408;2023-03-05T05:59:26;12.63;;;6.67;;
4355;SDS011;64374;51.482;7.408;2023-03-05T06:01:55;7.40;;;5.50;;
4355;SDS011;64374;51.482;7.408;2023-03-05T06:04:25;18.10;;;7.00;;
4355;SDS011;64374;51.482;7.408;2023-03-05T06:06:54;13.33;;;6.57;;
4355;SDS011;64374;51.482;7.408;2023-03-05T06:09:22;16.03;;;6.60;;
4355;SDS011;64374;51.482;7.408;2023-03-05T06:11:50;16.37;;;6.70;;
4355;SDS011;64374;51.482;7.408;2023-03-05T06:14:23;13.67;;;6.60;;
4355;SDS011;64374;51.482;7.408;2023-03-05T06:16:51;11.67;;;6.37;;
4355;SDS011;64374;51.482;7.408;2023-03-05T06:19:19;12.90;;;7.13;;
4355;SDS011;64374;51.482;7.408;2023-03-05T06:21:47;16.87;;;7.07;;
4355;SDS011;64374;51.482;7.408;2023-03-05T06:24:16;14.03;;;7.60;;
4355;SDS011;64374;51.482;7.408;2023-03-05T06:26:45;16.17;;;7.43;;
4355;SDS011;64374;51.482;7.408;2023-03-05T06:29:14;13.63;;;7.93;;
4355;SDS011;64374;51.482;7.408;2023-03-05T06:31:45;22.23;;;8.40;;
4355;SDS011;64374;51.482;7.408;2023-03-05T06:34:14;17.53;;;8.10;;
4355;SDS011;64374;51.482;7.408;2023-03-05T06:36:42;24.33;;;11.80;;
4355;SDS011;64374;51.482;7.408;2023-03-05T06:39:10;17.27;;;10.10;;
4355;SDS011;64374;51.482;7.408;2023-03-05T06:41:39;18.93;;;9.87;;
4355;SDS011;64374;51.482;7.408;2023-03-05T06:44:07;19.83;;;9.50;;
4355;SDS011;64374;51.482;7.408;2023-03-05T06:46:38;20.00;;;10.03;;
4355;SDS011;64374;51.482;7.408;2023-03-05T06:49:11;23.20;;;10.00;;
4355;SDS011;64374;51.482;7.408;2023-03-05T06:51:40;12.70;;;7.30;;
4355;SDS011;64374;51.482;7.408;2023-03-05T06:54:09;11.03;;;6.60;;
4355;SDS011;64374;51.482;7.408;2023-03-05T06:56:40;14.57;;;8.20;;
4355;SDS011;64374;51.482;7.408;2023-03-05T06:59:12;14.50;;;8.70;;
4355;SDS011;64374;51.482;7.408;2023-03-05T07:01:42;15.53;;;8.00;;
4355;SDS011;64374;51.482;7.408;2023-03-05T07:04:15;14.60;;;7.80;;
4355;SDS011;64374;51.482;7.408;2023-03-05T07:06:44;15.93;;;8.13;;
4355;SDS011;64374;51.482;7.408;2023-03-05T07:09:13;15.80;;;8.93;;
4355;SDS011;64374;51.482;7.408;2023-03-05T07:11:42;17.00;;;9.43;;
4355;SDS011;64374;51.482;7.408;2023-03-05T07:14:11;17.93;;;8.90;;
4355;SDS011;64374;51.482;7.408;2023-03-05T07:16:42;20.15;;;11.40;;
4355;SDS011;64374;51.482;7.408;2023-03-05T07:19:11;17.57;;;9.83;;
4355;SDS011;64374;51.482;7.408;2023-03-05T07:21:42;16.13;;;8.63;;
4355;SDS011;64374;51.482;7.408;2023-03-05T07:24:10;18.17;;;8.50;;
4355;SDS011;64374;51.482;7.408;2023-03-05T07:26:42;18.20;;;8.13;;
4355;SDS011;64374;51.482;7.408;2023-03-05T07:29:13;20.00;;;8.80;;
4355;SDS011;64374;51.482;7.408;2023-03-05T07:31:41;15.27;;;8.60;;
4355;SDS011;64374;51.482;7.408;2023-03-05T07:34:10;13.40;;;8.63;;
4355;SDS011;64374;51.482;7.408;2023-03-05T07:36:38;20.40;;;9.07;;
4355;SDS011;64374;51.482;7.408;2023-03-05T07:39:09;19.33;;;9.00;;
4355;SDS011;64374;51.482;7.408;2023-03-05T07:41:39;16.63;;;9.20;;
4355;SDS011;64374;51.482;7.408;2023-03-05T07:44:08;19.23;;;9.43;;
4355;SDS011;64374;51.482;7.408;2023-03-05T07:46:37;12.73;;;7.90;;
4355;SDS011;64374;51.482;7.408;2023-03-05T07:49:06;16.47;;;6.87;;
4355;SDS011;64374;51.482;7.408;2023-03-05T07:51:34;11.37;;;6.90;;
4355;SDS011;64374;51.482;7.408;2023-03-05T07:54:02;23.60;;;7.70;;
4355;SDS011;64374;51.482;7.408;2023-03-05T07:56:37;14.33;;;6.83;;
4355;SDS011;64374;51.482;7.408;2023-03-05T07:59:06;11.10;;;6.13;;
4355;SDS011;64374;51.482;7.408;2023-03-05T08:01:39;9.53;;;6.10;;
4355;SDS011;64374;51.482;7.408;2023-03-05T08:04:07;11.87;;;6.40;;
4355;SDS011;64374;51.482;7.408;2023-03-05T08:06:37;14.77;;;7.10;;
4355;SDS011;64374;51.482;7.408;2023-03-05T08:09:06;11.37;;;6.87;;
4355;SDS011;64374;51.482;7.408;2023-03-05T08:11:37;11.00;;;6.90;;
4355;SDS011;64374;51.482;7.408;2023-03-05T08:14:06;16.37;;;7.60;;
4355;SDS011;64374;51.482;7.408;2023-03-05T08:16:38;11.43;;;6.90;;
4355;SDS011;64374;51.482;7.408;2023-03-05T08:19:06;9.37;;;6.57;;
4355;SDS011;64374;51.482;7.408;2023-03-05T08:21:35;15.07;;;6.77;;
4355;SDS011;64374;51.482;7.408;2023-03-05T08:24:04;9.30;;;5.70;;
4355;SDS011;64374;51.482;7.408;2023-03-05T08:26:35;12.63;;;7.20;;
4355;SDS011;64374;51.482;7.408;2023-03-05T08:29:07;8.10;;;6.07;;
4355;SDS011;64374;51.482;7.408;2023-03-05T08:31:37;14.67;;;7.57;;
4355;SDS011;64374;51.482;7.408;2023-03-05T08:34:07;11.37;;;7.23;;
4355;SDS011;64374;51.482;7.408;2023-03-05T08:36:36;9.63;;;6.87;;
4355;SDS011;64374;51.482;7.408;2023-03-05T08:39:04;10.50;;;7.47;;
4355;SDS011;64374;51.482;7.408;2023-03-05T08:41:38;12.63;;;7.97;;
4355;SDS011;64374;51.482;7.408;2023-03-05T08:44:06;9.00;;;6.10;;
4355;SDS011;64374;51.482;7.408;2023-03-05T08:46:37;11.83;;;6.00;;
4355;SDS011;64374;51.482;7.408;2023-03-05T08:49:06;10.00;;;5.30;;
4355;SDS011;64374;51.482;7.408;2023-03-05T08:51:34;16.20;;;6.80;;
4355;SDS011;64374;51.482;7.408;2023-03-05T08:54:02;11.67;;;5.37;;
4355;SDS011;64374;51.482;7.408;2023-03-05T08:56:33;12.13;;;7.67;;
4355;SDS011;64374;51.482;7.408;2023-03-05T08:59:03;14.40;;;7.53;;
4355;SDS011;64374;51.482;7.408;2023-03-05T09:01:31;8.63;;;7.50;;
4355;SDS011;64374;51.482;7.408;2023-03-05T09:04:00;11.40;;;7.67;;
4355;SDS011;64374;51.482;7.408;2023-03-05T09:06:30;11.83;;;7.63;;
4355;SDS011;64374;51.482;7.408;2023-03-05T09:09:00;12.20;;;8.60;;
4355;SDS011;64374;51.482;7.408;2023-03-05T09:11:28;13.73;;;8.50;;
4355;SDS011;64374;51.482;7.408;2023-03-05T09:13:56;12.30;;;7.80;;
4355;SDS011;64374;51.482;7.408;2023-03-05T09:16:28;10.03;;;6.47;;
4355;SDS011;64374;51.482;7.408;2023-03-05T09:18:58;9.27;;;7.70;;
4355;SDS011;64374;51.482;7.408;2023-03-05T09:21:27;11.30;;;6.00;;
4355;SDS011;64374;51.482;7.408;2023-03-05T09:23:55;8.20;;;7.10;;
4355;SDS011;64374;51.482;7.408;2023-03-05T09:26:25;12.03;;;8.70;;
4355;SDS011;64374;51.482;7.408;2023-03-05T09:28:53;13.00;;;8.60;;
4355;SDS011;64374;51.482;7.408;2023-03-05T09:31:22;13.90;;;9.43;;
4355;SDS011;64374;51.482;7.408;2023-03-05T09:33:52;12.70;;;9.57;;
4355;SDS011;64374;51.482;7.408;2023-03-05T09:36:21;13.63;;;9.33;;
4355;SDS011;64374;51.482;7.408;2023-03-05T09:38:51;12.47;;;8.83;;
4355;SDS011;64374;51.482;7.408;2023-03-05T09:41:25;14.97;;;10.50;;
4355;SDS011;64374;51.482;7.408;2023-03-05T09:44:09;9.27;;;7.80;;
4355;SDS011;64374;51.482;7.408;2023-03-05T09:46:50;11.13;;;8.10;;
4355;SDS011;64374;51.482;7.408;2023-03-05T09:49:29;10.67;;;8.30;;
4355;SDS011;64374;51.482;7.408;2023-03-05T09:52:01;10.23;;;7.83;;
4355;SDS011;64374;51.482;7.408;2023-03-05T09:54:36;9.97;;;7.70;;
4355;SDS011;64374;51.482;7.408;2023-03-05T09:57:10;7.80;;;6.97;;
4355;SDS011;64374;51.482;7.408;2023-03-05T10:02:22;12.50;;;8.73;;
4355;SDS011;64374;51.482;7.408;2023-03-05T10:04:56;10.77;;;7.90;;
4355;SDS011;64374;51.482;7.408;2023-03-05T10:07:30;11.03;;;8.00;;
4355;SDS011;64374;51.482;7.408;2023-03-05T10:10:02;14.23;;;10.27;;
4355;SDS011;64374;51.482;7.408;2023-03-05T10:12:35;16.80;;;10.83;;
4355;SDS011;64374;51.482;7.408;2023-03-05T10:15:10;21.60;;;13.27;;
4355;SDS011;64374;51.482;7.408;2023-03-05T10:17:52;17.37;;;11.40;;
4355;SDS011;64374;51.482;7.408;2023-03-05T10:20:38;12.57;;;9.70;;
4355;SDS011;64374;51.482;7.408;2023-03-05T10:23:20;18.33;;;11.23;;
4355;SDS011;64374;51.482;7.408;2023-03-05T10:25:57;16.23;;;11.40;;
4355;SDS011;64374;51.482;7.408;2023-03-05T10:28:43;23.90;;;12.33;;
4355;SDS011;64374;51.482;7.408;2023-03-05T10:31:36;13.93;;;10.40;;
4355;SDS011;64374;51.482;7.408;2023-03-05T10:34:43;19.53;;;11.30;;
4355;SDS011;64374;51.482;7.408;2023-03-05T10:37:37;13.43;;;10.73;;
4355;SDS011;64374;51.482;7.408;2023-03-05T10:40:23;13.20;;;10.07;;
4355;SDS011;64374;51.482;7.408;2023-03-05T10:43:01;18.50;;;10.33;;
4355;SDS011;64374;51.482;7.408;2023-03-05T10:45:42;15.70;;;10.80;;
4355;SDS011;64374;51.482;7.408;2023-03-05T10:48:14;9.83;;;8.13;;
4355;SDS011;64374;51.482;7.408;2023-03-05T10:50:49;17.50;;;10.33;;
4355;SDS011;64374;51.482;7.408;2023-03-05T10:53:24;12.17;;;8.60;;
4355;SDS011;64374;51.482;7.408;2023-03-05T10:55:55;10.57;;;8.60;;
4355;SDS011;64374;51.482;7.408;2023-03-05T10:58:28;11.87;;;8.60;;
4355;SDS011;64374;51.482;7.408;2023-03-05T11:01:03;19.30;;;8.23;;
4355;SDS011;64374;51.482;7.408;2023-03-05T11:03:45;10.00;;;7.67;;
4355;SDS011;64374;51.482;7.408;2023-03-05T11:06:25;11.30;;;8.27;;
4355;SDS011;64374;51.482;7.408;2023-03-05T11:09:21;12.80;;;8.93;;
4355;SDS011;64374;51.482;7.408;2023-03-05T11:12:02;10.17;;;7.70;;
4355;SDS011;64374;51.482;7.408;2023-03-05T11:14:38;10.33;;;8.10;;
4355;SDS011;64374;51.482;7.408;2023-03-05T11:17:33;14.43;;;7.73;;
4355;SDS011;64374;51.482;7.408;2023-03-05T11:20:22;13.87;;;7.40;;
4355;SDS011;64374;51.482;7.408;2023-03-05T11:23:03;18.73;;;7.80;;
4355;SDS011;64374;51.482;7.408;2023-03-05T11:25:51;16.47;;;8.13;;
4355;SDS011;64374;51.482;7.408;2023-03-05T11:28:22;9.23;;;6.10;;
4355;SDS011;64374;51.482;7.408;2023-03-05T11:31:06;11.83;;;7.20;;
4355;SDS011;64374;51.482;7.408;2023-03-05T11:33:53;9.23;;;6.23;;
4355;SDS011;64374;51.482;7.408;2023-03-05T11:36:24;9.77;;;5.60;;
4355;SDS011;64374;51.482;7.408;2023-03-05T11:38:55;8.43;;;5.37;;
4355;SDS011;64374;51.482;7.408;2023-03-05T11:41:33;7.30;;;5.93;;
4355;SDS011;64374;51.482;7.408;2023-03-05T11:44:08;10.93;;;6.77;;
4355;SDS011;64374;51.482;7.408;2023-03-05T11:46:41;9.10;;;5.63;;
4355;SDS011;64374;51.482;7.408;2023-03-05T11:49:12;8.43;;;4.30;;
4355;SDS011;64374;51.482;7.408;2023-03-05T11:51:47;7.93;;;4.03;;
4355;SDS011;64374;51.482;7.408;2023-03-05T11:54:27;4.80;;;4.03;;
4355;SDS011;64374;51.482;7.408;2023-03-05T11:57:01;4.53;;;3.60;;
4355;SDS011;64374;51.482;7.408;2023-03-05T11:59:33;8.03;;;3.97;;
4355;SDS011;64374;51.482;7.408;2023-03-05T12:02:13;3.90;;;2.70;;
4355;SDS011;64374;51.482;7.408;2023-03-05T12:04:45;3.30;;;3.00;;
4355;SDS011;64374;51.482;7.408;2023-03-05T12:07:15;4.77;;;3.07;;
4355;SDS011;64374;51.482;7.408;2023-03-05T12:09:48;4.97;;;3.00;;
4355;SDS011;64374;51.482;7.408;2023-03-05T12:12:29;6.90;;;3.90;;
4355;SDS011;64374;51.482;7.408;2023-03-05T12:15:13;9.07;;;5.10;;
4355;SDS011;64374;51.482;7.408;2023-03-05T12:17:54;7.00;;;5.37;;
4355;SDS011;64374;51.482;7.408;2023-03-05T12:20:34;10.00;;;6.33;;
4355;SDS011;64374;51.482;7.408;2023-03-05T12:23:11;9.97;;;5.50;;
4355;SDS011;64374;51.482;7.408;2023-03-05T12:25:45;5.90;;;5.03;;
4355;SDS011;64374;51.482;7.408;2023-03-05T12:28:17;4.83;;;4.03;;
4355;SDS011;64374;51.482;7.408;2023-03-05T12:37:02;6.50;;;5.40;;
4355;SDS011;64374;51.482;7.408;2023-03-05T12:39:48;6.67;;;5.97;;
4355;SDS011;64374;51.482;7.408;2023-03-05T12:45:35;7.27;;;4.70;;
4355;SDS011;64374;51.482;7.408;2023-03-05T12:51:03;3.53;;;3.10;;
4355;SDS011;64374;51.482;7.408;2023-03-05T12:53:31;6.10;;;3.67;;
4355;SDS011;64374;51.482;7.408;2023-03-05T12:56:00;7.50;;;4.70;;
4355;SDS011;64374;51.482;7.408;2023-03-05T12:58:39;6.77;;;3.93;;
4355;SDS011;64374;51.482;7.408;2023-03-05T13:01:19;6.17;;;3.80;;
4355;SDS011;64374;51.482;7.408;2023-03-05T13:03:56;5.50;;;4.63;;
4355;SDS011;64374;51.482;7.408;2023-03-05T13:06:28;8.73;;;5.33;;
4355;SDS011;64374;51.482;7.408;2023-03-05T13:08:59;8.23;;;5.80;;
4355;SDS011;64374;51.482;7.408;2023-03-05T13:11:30;12.10;;;5.47;;
4355;SDS011;64374;51.482;7.408;2023-03-05T13:14:00;10.10;;;6.90;;
4355;SDS011;64374;51.482;7.408;2023-03-05T13:16:36;8.90;;;6.40;;
4355;SDS011;64374;51.482;7.408;2023-03-05T13:19:12;8.70;;;6.57;;
4355;SDS011;64374;51.482;7.408;2023-03-05T13:21:43;7.17;;;6.43;;
4355;SDS011;64374;51.482;7.408;2023-03-05T13:24:15;7.57;;;5.00;;
4355;SDS011;64374;51.482;7.408;2023-03-05T13:26:44;6.83;;;5.70;;
4355;SDS011;64374;51.482;7.408;2023-03-05T13:29:14;11.73;;;6.30;;
4355;SDS011;64374;51.482;7.408;2023-03-05T13:31:46;7.50;;;6.27;;
4355;SDS011;64374;51.482;7.408;2023-03-05T13:34:18;7.70;;;6.90;;
4355;SDS011;64374;51.482;7.408;2023-03-05T13:36:52;6.80;;;6.10;;
4355;SDS011;64374;51.482;7.408;2023-03-05T13:39:26;13.80;;;5.80;;
4355;SDS011;64374;51.482;7.408;2023-03-05T13:41:58;8.87;;;6.30;;
4355;SDS011;64374;51.482;7.408;2023-03-05T13:44:31;9.87;;;6.33;;
4355;SDS011;64374;51.482;7.408;2023-03-05T13:47:12;10.53;;;5.30;;
4355;SDS011;64374;51.482;7.408;2023-03-05T13:49:55;4.40;;;4.00;;
4355;SDS011;64374;51.482;7.408;2023-03-05T13:52:27;6.10;;;4.90;;
4355;SDS011;64374;51.482;7.408;2023-03-05T13:54:57;9.40;;;4.53;;
4355;SDS011;64374;51.482;7.408;2023-03-05T13:57:34;4.43;;;4.03;;
4355;SDS011;64374;51.482;7.408;2023-03-05T14:00:23;6.43;;;4.40;;
4355;SDS011;64374;51.482;7.408;2023-03-05T14:03:00;4.90;;;4.20;;
4355;SDS011;64374;51.482;7.408;2023-03-05T14:05:36;5.23;;;4.73;;
4355;SDS011;64374;51.482;7.408;2023-03-05T14:08:18;6.40;;;5.03;;
4355;SDS011;64374;51.482;7.408;2023-03-05T14:10:49;5.00;;;4.20;;
4355;SDS011;64374;51.482;7.408;2023-03-05T14:13:20;6.47;;;4.80;;
4355;SDS011;64374;51.482;7.408;2023-03-05T14:16:03;7.30;;;5.17;;
4355;SDS011;64374;51.482;7.408;2023-03-05T14:18:35;7.10;;;4.90;;
4355;SDS011;64374;51.482;7.408;2023-03-05T14:21:06;9.93;;;5.33;;
4355;SDS011;64374;51.482;7.408;2023-03-05T14:23:38;5.53;;;4.90;;
4355;SDS011;64374;51.482;7.408;2023-03-05T14:26:25;7.67;;;4.80;;
4355;SDS011;64374;51.482;7.408;2023-03-05T14:28:58;9.83;;;5.47;;
4355;SDS011;64374;51.482;7.408;2023-03-05T14:31:29;6.27;;;5.20;;
4355;SDS011;64374;51.482;7.408;2023-03-05T14:34:02;8.13;;;4.47;;
4355;SDS011;64374;51.482;7.408;2023-03-05T14:36:33;10.13;;;5.47;;
4355;SDS011;64374;51.482;7.408;2023-03-05T14:39:01;6.90;;;4.40;;
4355;SDS011;64374;51.482;7.408;2023-03-05T14:41:33;9.40;;;4.37;;
4355;SDS011;64374;51.482;7.408;2023-03-05T14:44:10;12.73;;;4.40;;
4355;SDS011;64374;51.482;7.408;2023-03-05T14:46:40;6.63;;;4.50;;
4355;SDS011;64374;51.482;7.408;2023-03-05T14:49:11;4.70;;;4.30;;
4355;SDS011;64374;51.482;7.408;2023-03-05T14:51:40;7.13;;;4.80;;
4355;SDS011;64374;51.482;7.408;2023-03-05T14:54:18;6.17;;;4.27;;
4355;SDS011;64374;51.482;7.408;2023-03-05T14:56:48;5.70;;;5.07;;
4355;SDS011;64374;51.482;7.408;2023-03-05T14:59:17;4.53;;;4.13;;
4355;SDS011;64374;51.482;7.408;2023-03-05T15:01:47;5.50;;;4.33;;
4355;SDS011;64374;51.482;7.408;2023-03-05T15:04:18;6.57;;;5.33;;
4355;SDS011;64374;51.482;7.408;2023-03-05T15:06:46;9.53;;;5.60;;
4355;SDS011;64374;51.482;7.408;2023-03-05T15:09:20;5.73;;;5.00;;
4355;SDS011;64374;51.482;7.408;2023-03-05T15:11:48;5.00;;;4.50;;
4355;SDS011;64374;51.482;7.408;2023-03-05T15:14:17;3.90;;;3.53;;
4355;SDS011;64374;51.482;7.408;2023-03-05T15:16:48;6.33;;;5.03;;
4355;SDS011;64374;51.482;7.408;2023-03-05T15:19:20;4.47;;;3.93;;
4355;SDS011;64374;51.482;7.408;2023-03-05T15:21:50;7.17;;;4.23;;
4355;SDS011;64374;51.482;7.408;2023-03-05T15:24:18;6.30;;;4.30;;
4355;SDS011;64374;51.482;7.408;2023-03-05T15:26:47;5.90;;;4.73;;
4355;SDS011;64374;51.482;7.408;2023-03-05T15:29:16;7.10;;;5.10;;
4355;SDS011;64374;51.482;7.408;2023-03-05T15:31:45;11.93;;;6.43;;
4355;SDS011;64374;51.482;7.408;2023-03-05T15:34:14;10.20;;;6.40;;
4355;SDS011;64374;51.482;7.408;2023-03-05T15:36:44;10.00;;;7.13;;